Brandon, SD

5:59 AM CDT on July 05, 2015 (GMT -0500)
East Sioux Falls | | Change Station
CLOSE
Current Station
Personal Weather Station
Location: Sioux Falls, SD
Elevation: 1473 ft
Nearby Weather Stations

Elev 1473 ft 43.55 °N, 96.66 °W | Updated 1 minute ago

Overcast
Overcast
68.4 °F
Feels Like 68.4 °F
N
2.9
Wind Variable Wind from SSE
Gusts 4.9 mph

Today
High -- | Low -- °F
--% Chance of Precip.
Yesterday
High -- | Low -- °F
Precip. -- in
5:51 AM 9:10 PM
Waning Gibbous, 85% visible
Pressure 29.88 in
Visibility 9.0 miles
Clouds Few 6500 ft
Scattered Clouds 10000 ft
Mostly Cloudy 12000 ft
Overcast 22000 ft
Dew Point 64 °F
Humidity 87%
Rainfall 0.00 in
Snow Depth Not available.
UV 0.0 out of 12
Pollen 5.10 out of 12
Air Quality Not available.
Flu Activity Not available.
METAR KFSD 051056Z 19009KT 9SM TS FEW065 SCT100CB BKN120 OVC220 21/17 A2990 RMK AO2 RAB26E55 TSB30 SLP116 CONS LTGICCC OHD TS OHD MOV E P0002 T02060172

More Conditions Fewer Conditions

Pressure 29.88 in
Visibility 9.0 miles
Clouds Few 6500 ft
Scattered Clouds 10000 ft
Mostly Cloudy 12000 ft
Overcast 22000 ft
Dew Point 64 °F
Humidity 87%
Rainfall 0.00 in
Snow Depth Not available.
UV 0.0 out of 12
Pollen 5.10 out of 12
Air Quality Not available.
Flu Activity Not available.
METAR KFSD 051056Z 19009KT 9SM TS FEW065 SCT100CB BKN120 OVC220 21/17 A2990 RMK AO2 RAB26E55 TSB30 SLP116 CONS LTGICCC OHD TS OHD MOV E P0002 T02060172

More Conditions Fewer Conditions

10-Day Weather Forecast

×

Almanac

Astronomy

Jul. 05, 2015 Rise Set
Actual Time
Civil Twilight
Nautical Twilight
Astronomical Twilight
Moon
Length of Visible Light
Length of Day
Tomorrow will be .
, % of the Moon is Illuminated

Today's Extremes

State Highs State Lows

Community

WunderPhotos

Upload Photos

1,835,229 photos uploaded!

WunderBlogs® & News

Nearby

Air Quality

  Air Quality AQ Index Pollutant
Not available.

Snow Depth

Station Depth Elevation

Earthquake Activity

City Distance Mag. Time & Date
Minimum magnitude displayed is 2.5.

Coastal Water Temperatures

Place Temperature

Stations

Nearby Weather Stations

Station Location Temp. Windchill Dew Point Humidity Wind Precip. Elev Updated Type